BIKF/KEF METAR and TAF weather

Enter ICAO airport designator
Station Type Date Time Source
BIKF METAR 2019/05/26 01:00 UTC NOAA

BIKF 260100Z 19003KT 9999 BKN014 BKN036 07/05 Q1017


Station Type Date Time Source
BIKF Decoded METAR 2019/05/26 01:00 UTC NOAA

Keflavikurflugvollur, Iceland (BIKF) 63-58N 022-36W 54M
May 25, 2019 - 09:00 PM EDT / 2019.05.26 0100 UTC
Wind: from the S (190 degrees) at 3 MPH (3 KT):0
Visibility: greater than 7 mile(s):0
Sky conditions: mostly cloudy
Temperature: 44 F (7 C)
Dew Point: 41 F (5 C)
Relative Humidity: 87%
Pressure (altimeter): 30.03 in. Hg (1017 hPa)
ob: BIKF 260100Z 19003KT 9999 BKN014 BKN036 07/05 Q1017
cycle: 1

Station Type Date Time Source
BIKF TAF 2019/05/25 21:39 UTC NOAA

TAF BIKF 251931Z 2521/2621 13007KT 9999 FEW015 BKN020 TX11/2615Z TN07/2603Z
TEMPO 2521/2611 OVC012
BECMG 2615/2618 29010KT

Example: see airport list